KSEA/SEA METAR and TAF weather

Enter ICAO airport designator
Station Type Date Time Source
KSEA METAR 2020/04/04 20:53 UTC NOAA

KSEA 042053Z 29011KT 10SM FEW025 SCT065 BKN200 BKN250 11/01 A2972 RMK AO2 SLP072 T01110011 56027


Station Type Date Time Source
KSEA Decoded METAR 2020/04/04 20:53 UTC NOAA

SEATTLE-TACOMA INTERNATIONAL AIRPORT , WA, United States (KSEA) 47-27N 122-19W 136M
Apr 04, 2020 - 04:53 PM EDT / 2020.04.04 2053 UTC
Wind: from the WNW (290 degrees) at 13 MPH (11 KT):0
Visibility: 10 mile(s):0
Sky conditions: mostly cloudy
Temperature: 52.0 F (11.1 C)
Dew Point: 34.0 F (1.1 C)
Relative Humidity: 50%
Pressure (altimeter): 29.72 in. Hg (1006 hPa)
Pressure tendency: 0.08 inches (2.7 hPa) lower than three hours ago
ob: KSEA 042053Z 29011KT 10SM FEW025 SCT065 BKN200 BKN250 11/01 A2972 RMK AO2 SLP072 T01110011 56027
cycle: 21

Station Type Date Time Source
KSEA TAF 2020/04/04 21:04 UTC NOAA

TAF
AMD KSEA 042101Z 0421/0524 31010KT P6SM FEW025 SCT070 BKN200
FM050200 02004KT P6SM OVC050
FM051800 34006KT P6SM BKN050

Example: see airport list